sensor_id;sensor_type;location;lat;lon;timestamp;temperature;humidity
21551;DHT22;10936;49.836;7.078;2022-08-19T05:01:49;21.60;99.90
21551;DHT22;10936;49.836;7.078;2022-08-19T05:04:18;21.50;99.90
21551;DHT22;10936;49.836;7.078;2022-08-19T05:06:45;21.40;99.90
21551;DHT22;10936;49.836;7.078;2022-08-19T05:09:11;21.40;99.90
21551;DHT22;10936;49.836;7.078;2022-08-19T05:11:37;21.30;99.90
21551;DHT22;10936;49.836;7.078;2022-08-19T05:14:07;21.30;99.90
21551;DHT22;10936;49.836;7.078;2022-08-19T05:16:33;21.30;99.90
21551;DHT22;10936;49.836;7.078;2022-08-19T05:18:59;21.30;99.90
21551;DHT22;10936;49.836;7.078;2022-08-19T05:21:43;21.30;99.90
21551;DHT22;10936;49.836;7.078;2022-08-19T05:24:28;21.30;99.90
21551;DHT22;10936;49.836;7.078;2022-08-19T05:26:55;21.30;99.90
21551;DHT22;10936;49.836;7.078;2022-08-19T05:29:23;21.40;99.90
21551;DHT22;10936;49.836;7.078;2022-08-19T05:31:49;21.40;99.90
21551;DHT22;10936;49.836;7.078;2022-08-19T05:34:17;21.50;99.90
21551;DHT22;10936;49.836;7.078;2022-08-19T05:36:44;21.50;99.90
21551;DHT22;10936;49.836;7.078;2022-08-19T05:39:13;21.60;99.90
21551;DHT22;10936;49.836;7.078;2022-08-19T05:41:43;21.60;99.90
21551;DHT22;10936;49.836;7.078;2022-08-19T05:44:08;21.60;99.90
21551;DHT22;10936;49.836;7.078;2022-08-19T05:46:36;21.70;99.90
21551;DHT22;10936;49.836;7.078;2022-08-19T05:49:04;21.70;99.90
21551;DHT22;10936;49.836;7.078;2022-08-19T05:51:31;21.80;99.90
21551;DHT22;10936;49.836;7.078;2022-08-19T05:53:59;21.90;99.90
21551;DHT22;10936;49.836;7.078;2022-08-19T05:56:25;22.00;99.90
21551;DHT22;10936;49.836;7.078;2022-08-19T05:58:51;22.10;99.90
21551;DHT22;10936;49.836;7.078;2022-08-19T06:01:20;22.10;99.90
21551;DHT22;10936;49.836;7.078;2022-08-19T06:03:46;22.10;99.90
21551;DHT22;10936;49.836;7.078;2022-08-19T06:06:14;22.10;99.90
21551;DHT22;10936;49.836;7.078;2022-08-19T06:08:40;22.10;99.90
21551;DHT22;10936;49.836;7.078;2022-08-19T06:11:32;22.10;99.90
21551;DHT22;10936;49.836;7.078;2022-08-19T06:14:01;22.20;99.90
21551;DHT22;10936;49.836;7.078;2022-08-19T06:16:27;22.30;99.90
21551;DHT22;10936;49.836;7.078;2022-08-19T06:18:54;22.30;99.90
21551;DHT22;10936;49.836;7.078;2022-08-19T06:21:22;22.40;99.90
21551;DHT22;10936;49.836;7.078;2022-08-19T06:23:48;22.40;99.90
21551;DHT22;10936;49.836;7.078;2022-08-19T06:26:17;22.30;99.90
21551;DHT22;10936;49.836;7.078;2022-08-19T06:28:43;22.20;99.90
21551;DHT22;10936;49.836;7.078;2022-08-19T06:31:13;22.10;99.90
21551;DHT22;10936;49.836;7.078;2022-08-19T06:33:40;22.00;99.90
21551;DHT22;10936;49.836;7.078;2022-08-19T06:36:07;22.00;99.90
21551;DHT22;10936;49.836;7.078;2022-08-19T06:38:32;22.00;99.90
21551;DHT22;10936;49.836;7.078;2022-08-19T06:41:03;22.00;99.90
21551;DHT22;10936;49.836;7.078;2022-08-19T06:43:29;22.00;99.90
21551;DHT22;10936;49.836;7.078;2022-08-19T06:45:55;22.00;99.90
21551;DHT22;10936;49.836;7.078;2022-08-19T06:48:20;21.90;99.90
21551;DHT22;10936;49.836;7.078;2022-08-19T06:50:46;21.80;99.90
21551;DHT22;10936;49.836;7.078;2022-08-19T06:53:13;21.70;99.90
21551;DHT22;10936;49.836;7.078;2022-08-19T06:55:39;21.70;99.90
21551;DHT22;10936;49.836;7.078;2022-08-19T06:58:06;21.70;99.90
21551;DHT22;10936;49.836;7.078;2022-08-19T07:00:32;21.80;99.90
21551;DHT22;10936;49.836;7.078;2022-08-19T07:02:58;21.80;99.90
21551;DHT22;10936;49.836;7.078;2022-08-19T07:05:24;21.90;99.90
21551;DHT22;10936;49.836;7.078;2022-08-19T07:07:49;22.00;99.90
21551;DHT22;10936;49.836;7.078;2022-08-19T07:10:15;22.10;99.90
21551;DHT22;10936;49.836;7.078;2022-08-19T07:12:40;22.10;99.90
21551;DHT22;10936;49.836;7.078;2022-08-19T07:15:07;22.20;99.90
21551;DHT22;10936;49.836;7.078;2022-08-19T07:17:35;22.10;99.90
21551;DHT22;10936;49.836;7.078;2022-08-19T07:20:06;22.10;99.90
21551;DHT22;10936;49.836;7.078;2022-08-19T07:22:33;22.20;99.90
21551;DHT22;10936;49.836;7.078;2022-08-19T07:24:59;22.30;99.90
21551;DHT22;10936;49.836;7.078;2022-08-19T07:27:25;22.40;99.90
21551;DHT22;10936;49.836;7.078;2022-08-19T07:29:52;22.50;99.90
21551;DHT22;10936;49.836;7.078;2022-08-19T07:32:18;22.60;99.90
21551;DHT22;10936;49.836;7.078;2022-08-19T07:34:43;22.70;99.90
21551;DHT22;10936;49.836;7.078;2022-08-19T07:37:11;22.80;99.90
21551;DHT22;10936;49.836;7.078;2022-08-19T07:39:37;22.80;99.90
21551;DHT22;10936;49.836;7.078;2022-08-19T07:42:07;22.90;99.90
21551;DHT22;10936;49.836;7.078;2022-08-19T07:44:34;23.00;99.90
21551;DHT22;10936;49.836;7.078;2022-08-19T07:47:00;23.10;99.90
21551;DHT22;10936;49.836;7.078;2022-08-19T07:49:27;23.10;99.90
21551;DHT22;10936;49.836;7.078;2022-08-19T07:51:59;23.20;99.90
21551;DHT22;10936;49.836;7.078;2022-08-19T07:54:27;23.20;99.90
21551;DHT22;10936;49.836;7.078;2022-08-19T07:56:54;23.30;99.90
21551;DHT22;10936;49.836;7.078;2022-08-19T07:59:20;23.30;99.90
21551;DHT22;10936;49.836;7.078;2022-08-19T08:01:47;23.40;99.90
21551;DHT22;10936;49.836;7.078;2022-08-19T08:04:13;23.40;99.90
21551;DHT22;10936;49.836;7.078;2022-08-19T08:06:58;23.40;99.90
21551;DHT22;10936;49.836;7.078;2022-08-19T08:09:43;23.50;99.90
21551;DHT22;10936;49.836;7.078;2022-08-19T08:12:20;23.50;99.90
21551;DHT22;10936;49.836;7.078;2022-08-19T08:14:53;23.50;99.90
21551;DHT22;10936;49.836;7.078;2022-08-19T08:17:23;23.60;99.90
21551;DHT22;10936;49.836;7.078;2022-08-19T08:19:49;23.60;99.90
21551;DHT22;10936;49.836;7.078;2022-08-19T08:22:18;23.60;99.90
21551;DHT22;10936;49.836;7.078;2022-08-19T08:25:24;23.70;99.80
21551;DHT22;10936;49.836;7.078;2022-08-19T08:27:50;23.70;99.70
21551;DHT22;10936;49.836;7.078;2022-08-19T08:30:22;23.70;99.70
21551;DHT22;10936;49.836;7.078;2022-08-19T08:32:48;23.80;99.60
21551;DHT22;10936;49.836;7.078;2022-08-19T08:35:16;23.80;99.60
21551;DHT22;10936;49.836;7.078;2022-08-19T08:37:43;23.80;99.40
21551;DHT22;10936;49.836;7.078;2022-08-19T08:45:33;23.90;99.30
21551;DHT22;10936;49.836;7.078;2022-08-19T08:48:04;23.90;99.20
21551;DHT22;10936;49.836;7.078;2022-08-19T08:50:38;24.00;99.20
21551;DHT22;10936;49.836;7.078;2022-08-19T08:53:07;24.00;99.10
21551;DHT22;10936;49.836;7.078;2022-08-19T08:55:34;24.10;99.00
21551;DHT22;10936;49.836;7.078;2022-08-19T08:58:03;24.10;98.90
21551;DHT22;10936;49.836;7.078;2022-08-19T09:00:34;24.10;98.80
21551;DHT22;10936;49.836;7.078;2022-08-19T09:03:01;24.10;98.70
21551;DHT22;10936;49.836;7.078;2022-08-19T09:05:41;24.20;98.80
21551;DHT22;10936;49.836;7.078;2022-08-19T09:10:54;24.20;98.70
21551;DHT22;10936;49.836;7.078;2022-08-19T09:16:20;24.30;98.60
21551;DHT22;10936;49.836;7.078;2022-08-19T09:18:55;24.30;98.50
21551;DHT22;10936;49.836;7.078;2022-08-19T09:21:24;24.30;98.40
21551;DHT22;10936;49.836;7.078;2022-08-19T09:23:51;24.40;98.40
21551;DHT22;10936;49.836;7.078;2022-08-19T09:26:19;24.40;98.30
21551;DHT22;10936;49.836;7.078;2022-08-19T09:28:46;24.40;98.20
21551;DHT22;10936;49.836;7.078;2022-08-19T09:31:15;24.40;98.30
21551;DHT22;10936;49.836;7.078;2022-08-19T09:33:40;24.40;98.20
21551;DHT22;10936;49.836;7.078;2022-08-19T09:36:11;24.50;98.20
21551;DHT22;10936;49.836;7.078;2022-08-19T09:38:38;24.50;98.10
21551;DHT22;10936;49.836;7.078;2022-08-19T09:41:11;24.50;98.00
21551;DHT22;10936;49.836;7.078;2022-08-19T09:43:39;24.50;97.90
21551;DHT22;10936;49.836;7.078;2022-08-19T09:46:06;24.50;98.30
21551;DHT22;10936;49.836;7.078;2022-08-19T09:48:35;24.60;97.90
21551;DHT22;10936;49.836;7.078;2022-08-19T09:51:12;24.60;98.00
21551;DHT22;10936;49.836;7.078;2022-08-19T09:53:41;24.60;97.90
21551;DHT22;10936;49.836;7.078;2022-08-19T09:56:07;24.60;97.90
21551;DHT22;10936;49.836;7.078;2022-08-19T09:58:34;24.60;97.80
21551;DHT22;10936;49.836;7.078;2022-08-19T10:01:00;24.70;97.70
21551;DHT22;10936;49.836;7.078;2022-08-19T10:03:27;24.70;97.70
21551;DHT22;10936;49.836;7.078;2022-08-19T10:05:54;24.70;97.70
21551;DHT22;10936;49.836;7.078;2022-08-19T10:08:26;24.70;97.60
21551;DHT22;10936;49.836;7.078;2022-08-19T10:10:53;24.80;97.60
21551;DHT22;10936;49.836;7.078;2022-08-19T10:13:22;24.80;97.50
21551;DHT22;10936;49.836;7.078;2022-08-19T10:15:53;24.80;97.50
21551;DHT22;10936;49.836;7.078;2022-08-19T10:18:20;24.80;97.50
21551;DHT22;10936;49.836;7.078;2022-08-19T10:20:50;24.80;97.40
21551;DHT22;10936;49.836;7.078;2022-08-19T10:23:17;24.80;97.40
21551;DHT22;10936;49.836;7.078;2022-08-19T10:25:43;24.80;97.40
21551;DHT22;10936;49.836;7.078;2022-08-19T10:28:09;24.80;97.30
21551;DHT22;10936;49.836;7.078;2022-08-19T10:30:38;24.90;97.30
21551;DHT22;10936;49.836;7.078;2022-08-19T10:33:05;24.90;97.30
21551;DHT22;10936;49.836;7.078;2022-08-19T10:35:30;24.90;97.20
21551;DHT22;10936;49.836;7.078;2022-08-19T10:37:56;24.90;97.20
21551;DHT22;10936;49.836;7.078;2022-08-19T10:40:27;24.90;97.10
21551;DHT22;10936;49.836;7.078;2022-08-19T10:42:54;25.00;97.10
21551;DHT22;10936;49.836;7.078;2022-08-19T10:45:21;25.00;97.10
21551;DHT22;10936;49.836;7.078;2022-08-19T10:47:52;25.00;97.00
21551;DHT22;10936;49.836;7.078;2022-08-19T10:50:18;25.00;97.00
21551;DHT22;10936;49.836;7.078;2022-08-19T10:53:05;25.00;97.00
21551;DHT22;10936;49.836;7.078;2022-08-19T10:55:31;25.00;97.00
21551;DHT22;10936;49.836;7.078;2022-08-19T10:58:18;25.00;96.90
21551;DHT22;10936;49.836;7.078;2022-08-19T11:00:55;25.00;96.90
21551;DHT22;10936;49.836;7.078;2022-08-19T11:03:22;25.10;96.90
21551;DHT22;10936;49.836;7.078;2022-08-19T11:06:03;25.10;96.90
21551;DHT22;10936;49.836;7.078;2022-08-19T11:08:30;25.10;96.80
21551;DHT22;10936;49.836;7.078;2022-08-19T11:10:59;25.10;96.80
21551;DHT22;10936;49.836;7.078;2022-08-19T11:13:28;25.10;96.70
21551;DHT22;10936;49.836;7.078;2022-08-19T11:16:17;25.10;96.70
21551;DHT22;10936;49.836;7.078;2022-08-19T11:18:47;25.20;96.70
21551;DHT22;10936;49.836;7.078;2022-08-19T11:21:19;25.20;96.60
21551;DHT22;10936;49.836;7.078;2022-08-19T11:23:47;25.20;96.60
21551;DHT22;10936;49.836;7.078;2022-08-19T11:26:15;25.20;96.50
21551;DHT22;10936;49.836;7.078;2022-08-19T11:28:41;25.20;96.50
21551;DHT22;10936;49.836;7.078;2022-08-19T11:31:17;25.20;96.50
21551;DHT22;10936;49.836;7.078;2022-08-19T11:33:43;25.20;96.50
21551;DHT22;10936;49.836;7.078;2022-08-19T11:36:09;25.20;96.50
21551;DHT22;10936;49.836;7.078;2022-08-19T11:38:36;25.20;96.50
21551;DHT22;10936;49.836;7.078;2022-08-19T11:41:04;25.20;96.50
21551;DHT22;10936;49.836;7.078;2022-08-19T11:43:30;25.20;96.50
21551;DHT22;10936;49.836;7.078;2022-08-19T11:45:57;25.20;96.40
21551;DHT22;10936;49.836;7.078;2022-08-19T11:48:24;25.20;96.40
21551;DHT22;10936;49.836;7.078;2022-08-19T11:50:51;25.30;96.40
21551;DHT22;10936;49.836;7.078;2022-08-19T11:53:18;25.20;96.40
21551;DHT22;10936;49.836;7.078;2022-08-19T11:55:46;25.30;96.50
21551;DHT22;10936;49.836;7.078;2022-08-19T11:58:13;25.30;96.50
21551;DHT22;10936;49.836;7.078;2022-08-19T12:00:40;25.30;96.50
21551;DHT22;10936;49.836;7.078;2022-08-19T12:03:06;25.30;96.50
21551;DHT22;10936;49.836;7.078;2022-08-19T12:05:32;25.40;96.50
21551;DHT22;10936;49.836;7.078;2022-08-19T12:07:57;25.30;96.50
21551;DHT22;10936;49.836;7.078;2022-08-19T12:10:23;25.30;96.50
21551;DHT22;10936;49.836;7.078;2022-08-19T12:12:49;25.40;96.60
21551;DHT22;10936;49.836;7.078;2022-08-19T12:15:15;25.40;96.50
21551;DHT22;10936;49.836;7.078;2022-08-19T12:17:41;25.40;96.50
21551;DHT22;10936;49.836;7.078;2022-08-19T12:20:09;25.40;96.50
21551;DHT22;10936;49.836;7.078;2022-08-19T12:22:37;25.40;96.50
21551;DHT22;10936;49.836;7.078;2022-08-19T12:25:04;25.40;96.50
21551;DHT22;10936;49.836;7.078;2022-08-19T12:27:31;25.40;96.40
21551;DHT22;10936;49.836;7.078;2022-08-19T12:29:57;25.40;96.40
21551;DHT22;10936;49.836;7.078;2022-08-19T12:32:23;25.50;96.40
21551;DHT22;10936;49.836;7.078;2022-08-19T12:34:50;25.40;96.40
21551;DHT22;10936;49.836;7.078;2022-08-19T12:37:16;25.40;96.30
21551;DHT22;10936;49.836;7.078;2022-08-19T12:39:43;25.40;96.40
21551;DHT22;10936;49.836;7.078;2022-08-19T12:42:10;25.40;96.30
21551;DHT22;10936;49.836;7.078;2022-08-19T12:44:38;25.40;96.30
21551;DHT22;10936;49.836;7.078;2022-08-19T12:47:06;25.50;96.30
21551;DHT22;10936;49.836;7.078;2022-08-19T12:49:32;25.40;96.30
21551;DHT22;10936;49.836;7.078;2022-08-19T12:52:06;25.40;96.30
21551;DHT22;10936;49.836;7.078;2022-08-19T12:54:34;25.50;96.30
21551;DHT22;10936;49.836;7.078;2022-08-19T12:57:00;25.50;96.30
21551;DHT22;10936;49.836;7.078;2022-08-19T12:59:29;25.50;96.20
21551;DHT22;10936;49.836;7.078;2022-08-19T13:01:55;25.50;96.20
21551;DHT22;10936;49.836;7.078;2022-08-19T13:04:21;25.50;96.10
21551;DHT22;10936;49.836;7.078;2022-08-19T13:06:46;25.50;96.20
21551;DHT22;10936;49.836;7.078;2022-08-19T13:09:12;25.50;96.10
21551;DHT22;10936;49.836;7.078;2022-08-19T13:11:38;25.50;96.10
21551;DHT22;10936;49.836;7.078;2022-08-19T13:14:04;25.50;96.10
21551;DHT22;10936;49.836;7.078;2022-08-19T13:16:31;25.50;96.10
21551;DHT22;10936;49.836;7.078;2022-08-19T13:18:57;25.50;96.10
21551;DHT22;10936;49.836;7.078;2022-08-19T13:21:25;25.50;96.10
21551;DHT22;10936;49.836;7.078;2022-08-19T13:23:53;25.50;96.10
21551;DHT22;10936;49.836;7.078;2022-08-19T13:26:19;25.60;96.00
21551;DHT22;10936;49.836;7.078;2022-08-19T13:28:45;25.60;96.00
21551;DHT22;10936;49.836;7.078;2022-08-19T13:31:35;25.60;95.90
21551;DHT22;10936;49.836;7.078;2022-08-19T13:34:27;25.60;95.90
21551;DHT22;10936;49.836;7.078;2022-08-19T13:36:54;25.60;95.80
21551;DHT22;10936;49.836;7.078;2022-08-19T13:39:19;25.60;95.80
21551;DHT22;10936;49.836;7.078;2022-08-19T13:41:46;25.60;95.80
21551;DHT22;10936;49.836;7.078;2022-08-19T13:44:14;25.60;95.80
21551;DHT22;10936;49.836;7.078;2022-08-19T13:46:41;25.60;95.70
21551;DHT22;10936;49.836;7.078;2022-08-19T13:49:11;25.60;95.70
21551;DHT22;10936;49.836;7.078;2022-08-19T13:51:38;25.60;95.70
21551;DHT22;10936;49.836;7.078;2022-08-19T13:54:06;25.70;95.70
21551;DHT22;10936;49.836;7.078;2022-08-19T13:56:32;25.60;95.60
21551;DHT22;10936;49.836;7.078;2022-08-19T13:58:58;25.70;95.60
21551;DHT22;10936;49.836;7.078;2022-08-19T14:01:24;25.70;95.50
21551;DHT22;10936;49.836;7.078;2022-08-19T14:03:49;25.70;95.50
21551;DHT22;10936;49.836;7.078;2022-08-19T14:06:15;25.70;95.40
21551;DHT22;10936;49.836;7.078;2022-08-19T14:08:42;25.70;95.50
21551;DHT22;10936;49.836;7.078;2022-08-19T14:11:09;25.70;95.50
21551;DHT22;10936;49.836;7.078;2022-08-19T14:13:34;25.70;95.50
21551;DHT22;10936;49.836;7.078;2022-08-19T14:16:00;25.70;95.50
21551;DHT22;10936;49.836;7.078;2022-08-19T14:18:26;25.70;95.40
21551;DHT22;10936;49.836;7.078;2022-08-19T14:20:52;25.80;95.30
21551;DHT22;10936;49.836;7.078;2022-08-19T14:23:18;25.80;95.30
21551;DHT22;10936;49.836;7.078;2022-08-19T14:25:45;25.80;95.30
21551;DHT22;10936;49.836;7.078;2022-08-19T14:28:11;25.80;95.20
21551;DHT22;10936;49.836;7.078;2022-08-19T14:30:38;25.80;95.20
21551;DHT22;10936;49.836;7.078;2022-08-19T14:33:05;25.80;95.10
21551;DHT22;10936;49.836;7.078;2022-08-19T14:35:32;25.80;95.10
21551;DHT22;10936;49.836;7.078;2022-08-19T14:38:04;25.80;95.20
21551;DHT22;10936;49.836;7.078;2022-08-19T14:40:31;25.80;95.10
21551;DHT22;10936;49.836;7.078;2022-08-19T14:42:59;25.80;95.10
21551;DHT22;10936;49.836;7.078;2022-08-19T14:45:28;25.90;95.20
21551;DHT22;10936;49.836;7.078;2022-08-19T14:47:54;25.90;95.20
21551;DHT22;10936;49.836;7.078;2022-08-19T14:50:20;25.90;95.10
21551;DHT22;10936;49.836;7.078;2022-08-19T14:52:48;25.90;95.00
21551;DHT22;10936;49.836;7.078;2022-08-19T14:55:14;25.90;95.00
21551;DHT22;10936;49.836;7.078;2022-08-19T14:57:41;26.00;94.90
21551;DHT22;10936;49.836;7.078;2022-08-19T15:00:08;26.00;94.90
21551;DHT22;10936;49.836;7.078;2022-08-19T15:02:38;26.00;95.00
21551;DHT22;10936;49.836;7.078;2022-08-19T15:05:05;26.00;94.90
21551;DHT22;10936;49.836;7.078;2022-08-19T15:07:31;26.00;94.90
21551;DHT22;10936;49.836;7.078;2022-08-19T15:09:57;26.00;94.80
21551;DHT22;10936;49.836;7.078;2022-08-19T15:12:23;26.00;94.80
21551;DHT22;10936;49.836;7.078;2022-08-19T15:14:50;26.00;94.90
21551;DHT22;10936;49.836;7.078;2022-08-19T15:17:17;26.00;95.00
21551;DHT22;10936;49.836;7.078;2022-08-19T15:19:42;26.00;95.00
21551;DHT22;10936;49.836;7.078;2022-08-19T15:22:08;26.00;95.00
21551;DHT22;10936;49.836;7.078;2022-08-19T15:24:35;26.00;95.00
21551;DHT22;10936;49.836;7.078;2022-08-19T15:27:01;26.10;95.00
21551;DHT22;10936;49.836;7.078;2022-08-19T15:29:27;26.10;95.10
21551;DHT22;10936;49.836;7.078;2022-08-19T15:31:54;26.10;95.00
21551;DHT22;10936;49.836;7.078;2022-08-19T15:34:23;26.10;95.00
21551;DHT22;10936;49.836;7.078;2022-08-19T15:36:51;26.10;95.20
21551;DHT22;10936;49.836;7.078;2022-08-19T15:39:17;26.10;95.30
21551;DHT22;10936;49.836;7.078;2022-08-19T15:41:44;26.10;95.30
21551;DHT22;10936;49.836;7.078;2022-08-19T15:44:12;26.10;95.30
21551;DHT22;10936;49.836;7.078;2022-08-19T15:46:41;26.10;95.30
21551;DHT22;10936;49.836;7.078;2022-08-19T15:49:10;26.10;95.30
21551;DHT22;10936;49.836;7.078;2022-08-19T15:51:37;26.10;95.30
21551;DHT22;10936;49.836;7.078;2022-08-19T15:54:10;26.10;95.40
21551;DHT22;10936;49.836;7.078;2022-08-19T15:56:36;26.10;95.70
21551;DHT22;10936;49.836;7.078;2022-08-19T15:59:21;26.10;95.40
21551;DHT22;10936;49.836;7.078;2022-08-19T16:02:05;26.10;95.50
21551;DHT22;10936;49.836;7.078;2022-08-19T16:04:51;26.10;95.50
21551;DHT22;10936;49.836;7.078;2022-08-19T16:07:35;26.10;95.40
21551;DHT22;10936;49.836;7.078;2022-08-19T16:10:01;26.10;95.30
21551;DHT22;10936;49.836;7.078;2022-08-19T16:12:27;26.10;95.40
21551;DHT22;10936;49.836;7.078;2022-08-19T16:14:55;26.10;95.40
21551;DHT22;10936;49.836;7.078;2022-08-19T16:17:21;26.10;95.70
21551;DHT22;10936;49.836;7.078;2022-08-19T16:19:47;26.10;95.30
21551;DHT22;10936;49.836;7.078;2022-08-19T16:22:13;26.10;95.30
21551;DHT22;10936;49.836;7.078;2022-08-19T16:24:39;26.10;95.30
21551;DHT22;10936;49.836;7.078;2022-08-19T16:27:05;26.10;95.30
21551;DHT22;10936;49.836;7.078;2022-08-19T16:29:30;26.10;95.30
21551;DHT22;10936;49.836;7.078;2022-08-19T16:31:58;26.10;95.60
21551;DHT22;10936;49.836;7.078;2022-08-19T16:34:24;26.10;95.30
21551;DHT22;10936;49.836;7.078;2022-08-19T16:36:50;26.10;95.30
21551;DHT22;10936;49.836;7.078;2022-08-19T16:39:16;26.10;95.20
21551;DHT22;10936;49.836;7.078;2022-08-19T16:41:44;26.10;95.20
21551;DHT22;10936;49.836;7.078;2022-08-19T16:44:12;26.10;95.10
21551;DHT22;10936;49.836;7.078;2022-08-19T16:46:38;26.10;95.10
21551;DHT22;10936;49.836;7.078;2022-08-19T16:49:06;26.20;95.10
21551;DHT22;10936;49.836;7.078;2022-08-19T16:51:32;26.10;95.10
21551;DHT22;10936;49.836;7.078;2022-08-19T16:53:59;26.10;95.10
21551;DHT22;10936;49.836;7.078;2022-08-19T16:56:25;26.10;95.10
21551;DHT22;10936;49.836;7.078;2022-08-19T16:58:52;26.10;95.10
21551;DHT22;10936;49.836;7.078;2022-08-19T17:01:18;26.20;95.10
21551;DHT22;10936;49.836;7.078;2022-08-19T17:03:45;26.20;95.20
21551;DHT22;10936;49.836;7.078;2022-08-19T17:06:28;26.10;95.10
21551;DHT22;10936;49.836;7.078;2022-08-19T17:08:57;26.20;95.10
21551;DHT22;10936;49.836;7.078;2022-08-19T17:11:25;26.10;95.10
21551;DHT22;10936;49.836;7.078;2022-08-19T17:13:52;26.10;95.10
21551;DHT22;10936;49.836;7.078;2022-08-19T17:16:23;26.10;95.10
21551;DHT22;10936;49.836;7.078;2022-08-19T17:18:50;26.20;95.10
21551;DHT22;10936;49.836;7.078;2022-08-19T17:21:22;26.10;95.10
21551;DHT22;10936;49.836;7.078;2022-08-19T17:23:48;26.10;95.10
21551;DHT22;10936;49.836;7.078;2022-08-19T17:26:15;26.10;95.10
21551;DHT22;10936;49.836;7.078;2022-08-19T17:28:42;26.10;95.00
21551;DHT22;10936;49.836;7.078;2022-08-19T17:31:08;26.10;95.10
21551;DHT22;10936;49.836;7.078;2022-08-19T17:33:34;26.10;95.10
21551;DHT22;10936;49.836;7.078;2022-08-19T17:36:00;26.10;95.10
21551;DHT22;10936;49.836;7.078;2022-08-19T17:38:28;26.10;95.10
21551;DHT22;10936;49.836;7.078;2022-08-19T17:40:54;26.10;95.10
21551;DHT22;10936;49.836;7.078;2022-08-19T17:43:28;26.10;95.10
21551;DHT22;10936;49.836;7.078;2022-08-19T17:45:54;26.00;95.00
21551;DHT22;10936;49.836;7.078;2022-08-19T17:48:19;26.10;95.10
21551;DHT22;10936;49.836;7.078;2022-08-19T17:50:45;26.00;95.10
21551;DHT22;10936;49.836;7.078;2022-08-19T17:53:12;26.00;95.00
21551;DHT22;10936;49.836;7.078;2022-08-19T17:55:37;26.10;95.10
21551;DHT22;10936;49.836;7.078;2022-08-19T17:58:03;26.00;95.10
21551;DHT22;10936;49.836;7.078;2022-08-19T18:00:31;26.00;95.10
21551;DHT22;10936;49.836;7.078;2022-08-19T18:02:59;26.10;95.10
21551;DHT22;10936;49.836;7.078;2022-08-19T18:05:31;26.00;95.10
21551;DHT22;10936;49.836;7.078;2022-08-19T18:07:58;26.00;95.10
21551;DHT22;10936;49.836;7.078;2022-08-19T18:10:26;26.00;95.10
21551;DHT22;10936;49.836;7.078;2022-08-19T18:12:52;26.00;95.10
21551;DHT22;10936;49.836;7.078;2022-08-19T18:15:19;26.00;95.10
21551;DHT22;10936;49.836;7.078;2022-08-19T18:17:45;26.00;95.10
21551;DHT22;10936;49.836;7.078;2022-08-19T18:20:13;26.00;95.10
21551;DHT22;10936;49.836;7.078;2022-08-19T18:22:41;26.00;95.50
21551;DHT22;10936;49.836;7.078;2022-08-19T18:25:19;26.00;95.10
21551;DHT22;10936;49.836;7.078;2022-08-19T18:27:51;26.00;95.10
21551;DHT22;10936;49.836;7.078;2022-08-19T18:30:17;26.00;95.50
21551;DHT22;10936;49.836;7.078;2022-08-19T18:32:43;26.00;95.20
21551;DHT22;10936;49.836;7.078;2022-08-19T18:35:15;26.00;95.10
21551;DHT22;10936;49.836;7.078;2022-08-19T18:37:42;26.00;95.10
21551;DHT22;10936;49.836;7.078;2022-08-19T18:40:11;26.00;95.20
21551;DHT22;10936;49.836;7.078;2022-08-19T18:42:55;26.00;95.10
21551;DHT22;10936;49.836;7.078;2022-08-19T18:45:48;26.00;95.20
21551;DHT22;10936;49.836;7.078;2022-08-19T18:48:33;26.00;95.20
21551;DHT22;10936;49.836;7.078;2022-08-19T18:51:18;26.00;95.20
21551;DHT22;10936;49.836;7.078;2022-08-19T18:53:46;26.00;95.20
21551;DHT22;10936;49.836;7.078;2022-08-19T18:56:14;26.00;95.20
21551;DHT22;10936;49.836;7.078;2022-08-19T18:58:41;25.90;95.20
21551;DHT22;10936;49.836;7.078;2022-08-19T19:01:18;25.90;95.20
21551;DHT22;10936;49.836;7.078;2022-08-19T19:03:48;26.00;95.20
21551;DHT22;10936;49.836;7.078;2022-08-19T19:06:18;25.90;95.20
21551;DHT22;10936;49.836;7.078;2022-08-19T19:08:45;26.00;95.20
21551;DHT22;10936;49.836;7.078;2022-08-19T19:11:11;26.00;95.30
21551;DHT22;10936;49.836;7.078;2022-08-19T19:13:37;25.90;95.20
21551;DHT22;10936;49.836;7.078;2022-08-19T19:16:10;25.90;95.30
21551;DHT22;10936;49.836;7.078;2022-08-19T19:18:37;25.90;95.30
21551;DHT22;10936;49.836;7.078;2022-08-19T19:21:03;25.90;95.30
21551;DHT22;10936;49.836;7.078;2022-08-19T19:23:29;25.90;95.30
21551;DHT22;10936;49.836;7.078;2022-08-19T19:25:55;26.00;95.30
21551;DHT22;10936;49.836;7.078;2022-08-19T19:28:22;26.00;95.30
21551;DHT22;10936;49.836;7.078;2022-08-19T19:30:50;25.90;95.30
21551;DHT22;10936;49.836;7.078;2022-08-19T19:33:17;25.90;95.30
21551;DHT22;10936;49.836;7.078;2022-08-19T19:35:44;25.90;95.30
21551;DHT22;10936;49.836;7.078;2022-08-19T19:38:10;25.90;95.30
21551;DHT22;10936;49.836;7.078;2022-08-19T19:40:36;25.90;95.30
21551;DHT22;10936;49.836;7.078;2022-08-19T19:43:02;25.90;95.30
21551;DHT22;10936;49.836;7.078;2022-08-19T19:45:30;26.00;95.40
21551;DHT22;10936;49.836;7.078;2022-08-19T19:47:56;26.00;95.40
21551;DHT22;10936;49.836;7.078;2022-08-19T19:50:24;25.90;95.30
21551;DHT22;10936;49.836;7.078;2022-08-19T19:52:50;25.90;95.40
21551;DHT22;10936;49.836;7.078;2022-08-19T19:55:16;25.90;95.40
21551;DHT22;10936;49.836;7.078;2022-08-19T19:57:46;25.90;95.40
21551;DHT22;10936;49.836;7.078;2022-08-19T20:00:14;25.90;95.40
21551;DHT22;10936;49.836;7.078;2022-08-19T20:02:41;25.90;95.40
21551;DHT22;10936;49.836;7.078;2022-08-19T20:05:11;25.90;95.40
21551;DHT22;10936;49.836;7.078;2022-08-19T20:07:38;25.90;95.40
21551;DHT22;10936;49.836;7.078;2022-08-19T20:10:24;25.90;95.40
21551;DHT22;10936;49.836;7.078;2022-08-19T20:12:50;25.90;95.40
21551;DHT22;10936;49.836;7.078;2022-08-19T20:15:20;25.90;95.40
21551;DHT22;10936;49.836;7.078;2022-08-19T20:17:47;25.90;95.40
21551;DHT22;10936;49.836;7.078;2022-08-19T20:20:17;25.90;95.40
21551;DHT22;10936;49.836;7.078;2022-08-19T20:22:44;25.90;95.40
21551;DHT22;10936;49.836;7.078;2022-08-19T20:25:16;25.90;95.50
21551;DHT22;10936;49.836;7.078;2022-08-19T20:27:42;25.90;95.40
21551;DHT22;10936;49.836;7.078;2022-08-19T20:30:12;25.80;95.40
21551;DHT22;10936;49.836;7.078;2022-08-19T20:32:39;25.90;95.40
21551;DHT22;10936;49.836;7.078;2022-08-19T20:35:06;25.80;95.40
21551;DHT22;10936;49.836;7.078;2022-08-19T20:37:32;25.80;95.40
21551;DHT22;10936;49.836;7.078;2022-08-19T20:39:57;25.90;95.50
21551;DHT22;10936;49.836;7.078;2022-08-19T20:42:23;25.80;95.40
21551;DHT22;10936;49.836;7.078;2022-08-19T20:44:49;25.90;95.40
21551;DHT22;10936;49.836;7.078;2022-08-19T20:47:15;25.80;95.40
21551;DHT22;10936;49.836;7.078;2022-08-19T20:49:40;25.80;95.40